createdAt,value
2022-10-01T00:02:44.082Z,17.80
2022-10-01T00:07:47.485Z,17.50
2022-10-01T00:12:50.303Z,16.30
2022-10-01T00:17:53.881Z,17.70
2022-10-01T00:22:56.676Z,16.40
2022-10-01T00:28:00.078Z,16.80
2022-10-01T00:33:02.960Z,16.50
2022-10-01T00:38:07.452Z,16.30
2022-10-01T00:43:21.234Z,17.20
2022-10-01T00:48:27.072Z,16.40
2022-10-01T00:53:33.090Z,17.40
2022-10-01T00:58:36.200Z,17.80
2022-10-01T01:03:39.087Z,16.70
2022-10-01T01:08:42.979Z,16.00
2022-10-01T01:14:02.012Z,17.80
2022-10-01T01:19:14.997Z,16.90
2022-10-01T01:24:33.666Z,16.70
2022-10-01T01:29:53.144Z,17.50
2022-10-01T01:35:02.794Z,16.60
2022-10-01T01:40:11.153Z,16.90
2022-10-01T01:45:20.415Z,17.00
2022-10-01T01:50:29.126Z,17.90
2022-10-01T01:55:34.519Z,17.50
2022-10-01T02:00:37.715Z,17.80
2022-10-01T02:06:04.369Z,16.70
2022-10-01T02:16:50.487Z,17.10
2022-10-01T02:22:02.411Z,17.00
2022-10-01T02:27:13.713Z,17.20
2022-10-01T02:32:18.435Z,17.10
2022-10-01T02:37:25.589Z,16.80
2022-10-01T02:42:31.184Z,17.10
2022-10-01T02:47:39.705Z,17.60
2022-10-01T02:53:07.267Z,16.30
2022-10-01T02:58:10.058Z,17.10
2022-10-01T03:03:12.981Z,17.90
2022-10-01T03:08:15.824Z,18.50
2022-10-01T03:13:22.027Z,20.00
2022-10-01T03:18:24.843Z,25.90
2022-10-01T03:23:27.651Z,28.80
2022-10-01T03:28:30.464Z,22.70
2022-10-01T03:33:33.691Z,20.10
2022-10-01T03:38:36.455Z,18.80
2022-10-01T03:43:39.172Z,43.60
2022-10-01T03:48:41.868Z,25.30
2022-10-01T03:53:44.597Z,29.20
2022-10-01T03:58:47.314Z,21.10
2022-10-01T04:03:50.459Z,19.20
2022-10-01T04:08:53.263Z,18.90
2022-10-01T04:13:58.060Z,20.30
2022-10-01T04:19:00.951Z,19.00
2022-10-01T04:24:05.695Z,18.60
2022-10-01T04:29:08.663Z,19.50
2022-10-01T04:34:11.397Z,18.30
2022-10-01T04:39:14.137Z,19.80
2022-10-01T04:44:16.946Z,21.30
2022-10-01T04:49:19.704Z,21.20
2022-10-01T04:54:22.471Z,20.00
2022-10-01T04:59:26.680Z,22.40
2022-10-01T05:04:29.421Z,22.40
2022-10-01T05:09:32.303Z,21.10
2022-10-01T05:14:36.186Z,22.70
2022-10-01T05:19:38.956Z,22.00
2022-10-01T05:24:43.444Z,22.00
2022-10-01T05:29:46.978Z,24.10
2022-10-01T05:34:53.467Z,25.50
2022-10-01T05:39:56.613Z,24.60
2022-10-01T05:44:59.329Z,26.80
2022-10-01T05:50:02.133Z,24.40
2022-10-01T05:55:05.276Z,25.30
2022-10-01T06:00:08.830Z,25.70
2022-10-01T06:05:11.652Z,24.20
2022-10-01T06:10:15.775Z,22.90
2022-10-01T06:15:18.981Z,21.40
2022-10-01T06:20:21.712Z,22.10
2022-10-01T06:25:26.086Z,20.30
2022-10-01T06:30:32.050Z,19.10
2022-10-01T06:35:36.756Z,18.00
2022-10-01T06:40:42.119Z,19.60
2022-10-01T06:45:44.972Z,18.30
2022-10-01T06:50:49.848Z,18.20
2022-10-01T06:55:52.656Z,18.40
2022-10-01T07:01:02.190Z,15.90
2022-10-01T07:06:08.079Z,15.40
2022-10-01T07:11:10.897Z,15.20
2022-10-01T07:16:13.782Z,15.90
2022-10-01T07:21:16.603Z,14.20
2022-10-01T07:26:19.349Z,13.10
2022-10-01T07:31:22.284Z,13.50
2022-10-01T07:36:25.469Z,14.40
2022-10-01T07:41:28.292Z,13.60
2022-10-01T07:46:34.580Z,12.40
2022-10-01T07:51:38.047Z,11.60
2022-10-01T07:56:41.742Z,10.10
2022-10-01T08:01:44.651Z,10.20
2022-10-01T08:06:49.122Z,7.70
2022-10-01T08:11:51.921Z,8.40
2022-10-01T08:16:55.950Z,8.70
2022-10-01T08:21:58.768Z,8.10
2022-10-01T08:27:01.870Z,9.00
2022-10-01T08:32:04.739Z,8.30
2022-10-01T08:37:07.638Z,8.60
2022-10-01T08:42:33.491Z,6.80
2022-10-01T08:47:41.292Z,8.00
2022-10-01T08:52:57.469Z,7.90
2022-10-01T08:58:06.973Z,7.90
2022-10-01T09:03:15.018Z,7.60
2022-10-01T09:08:24.208Z,5.80
2022-10-01T09:13:59.849Z,7.30
2022-10-01T09:19:17.849Z,5.70
2022-10-01T09:24:29.623Z,7.30
2022-10-01T09:30:07.105Z,7.20
2022-10-01T09:35:37.275Z,8.10
2022-10-01T09:40:53.536Z,7.30
2022-10-01T09:45:56.791Z,6.60
2022-10-01T09:51:08.791Z,9.10
2022-10-01T09:56:19.243Z,7.90
2022-10-01T10:01:44.079Z,7.50
2022-10-01T10:06:48.272Z,6.20
2022-10-01T10:11:51.724Z,6.80
2022-10-01T10:16:56.771Z,7.90
2022-10-01T10:22:12.790Z,6.70
2022-10-01T10:27:29.282Z,5.90
2022-10-01T10:32:33.098Z,6.50
2022-10-01T10:37:39.141Z,5.70
2022-10-01T10:42:49.084Z,6.50
2022-10-01T10:47:53.852Z,6.90
2022-10-01T10:52:57.850Z,5.80
2022-10-01T10:58:12.038Z,5.80
2022-10-01T11:03:18.101Z,7.20
2022-10-01T11:08:27.956Z,5.80
2022-10-01T11:14:09.640Z,6.20
2022-10-01T11:19:34.314Z,6.50
2022-10-01T11:24:37.101Z,6.70
2022-10-01T11:29:54.097Z,6.80
2022-10-01T11:35:12.123Z,6.90
2022-10-01T11:40:25.272Z,7.40
2022-10-01T11:45:32.187Z,7.00
2022-10-01T11:50:49.205Z,6.50
2022-10-01T11:56:44.278Z,5.70
2022-10-01T12:02:15.321Z,6.50
2022-10-01T12:07:52.692Z,6.50
2022-10-01T12:13:10.484Z,7.70
2022-10-01T12:18:22.414Z,6.30
2022-10-01T12:23:30.270Z,7.40
2022-10-01T12:28:53.623Z,7.00
2022-10-01T12:34:22.603Z,7.70
2022-10-01T12:44:53.988Z,8.00
2022-10-01T12:50:12.404Z,7.80
2022-10-01T12:55:34.462Z,7.50
2022-10-01T13:01:07.077Z,8.10
2022-10-01T13:06:44.405Z,7.60
2022-10-01T13:12:16.480Z,8.50
2022-10-01T13:17:42.698Z,6.40
2022-10-01T13:23:00.980Z,8.50
2022-10-01T13:28:23.433Z,7.20
2022-10-01T13:33:29.214Z,8.30
2022-10-01T13:38:38.159Z,7.20
2022-10-01T13:43:57.080Z,8.00
2022-10-01T13:49:18.955Z,8.10
2022-10-01T13:54:44.255Z,9.10
2022-10-01T13:59:59.300Z,7.70
2022-10-01T14:05:27.004Z,17.70
2022-10-01T14:10:58.459Z,11.60
2022-10-01T14:16:03.439Z,7.50
2022-10-01T14:21:28.748Z,5.80
2022-10-01T14:26:40.006Z,7.10
2022-10-01T14:32:07.343Z,7.00
2022-10-01T14:37:17.324Z,6.80
2022-10-01T14:42:20.398Z,6.30
2022-10-01T14:47:28.089Z,6.50
2022-10-01T14:52:35.694Z,8.70
2022-10-01T14:57:42.801Z,15.60
2022-10-01T15:03:16.200Z,8.90
2022-10-01T15:08:37.125Z,8.00
2022-10-01T15:13:43.198Z,13.00
2022-10-01T15:18:50.245Z,19.90
2022-10-01T15:23:53.906Z,15.90
2022-10-01T15:29:07.526Z,14.50
2022-10-01T15:34:14.304Z,13.90
2022-10-01T15:39:46.266Z,15.30
2022-10-01T15:44:50.324Z,18.60
2022-10-01T15:50:23.891Z,16.20
2022-10-01T15:55:26.631Z,12.50
2022-10-01T16:00:32.297Z,11.70
2022-10-01T16:05:46.576Z,14.30
2022-10-01T16:11:20.375Z,15.90
2022-10-01T16:16:24.767Z,13.50
2022-10-01T16:21:27.818Z,11.80
2022-10-01T16:26:37.810Z,13.50
2022-10-01T16:31:45.849Z,14.00
2022-10-01T16:42:11.934Z,13.90
2022-10-01T16:47:17.442Z,15.30
2022-10-01T16:52:21.522Z,17.50
2022-10-01T16:57:24.314Z,14.40
2022-10-01T17:02:27.062Z,22.90
2022-10-01T17:07:29.885Z,19.10
2022-10-01T17:12:32.681Z,22.90
2022-10-01T17:17:35.486Z,11.40
2022-10-01T17:22:44.789Z,15.80
2022-10-01T17:27:47.706Z,12.10
2022-10-01T17:32:51.357Z,13.80
2022-10-01T17:37:54.350Z,19.90
2022-10-01T17:42:57.128Z,11.50
2022-10-01T17:48:01.823Z,12.50
2022-10-01T17:53:04.606Z,12.30
2022-10-01T17:58:09.463Z,11.10
2022-10-01T18:03:12.326Z,12.80
2022-10-01T18:08:15.090Z,15.50
2022-10-01T18:13:18.334Z,13.10
2022-10-01T18:23:44.976Z,17.30
2022-10-01T18:28:48.211Z,14.20
2022-10-01T18:33:56.898Z,15.20
2022-10-01T18:39:15.403Z,14.10
2022-10-01T18:44:20.673Z,14.00
2022-10-01T18:49:43.575Z,17.50
2022-10-01T18:54:54.092Z,13.10
2022-10-01T19:00:15.703Z,12.70
2022-10-01T19:05:36.812Z,15.00
2022-10-01T19:10:45.676Z,14.30
2022-10-01T19:16:03.795Z,13.00
2022-10-01T19:21:20.929Z,13.00
2022-10-01T19:26:50.016Z,13.50
2022-10-01T19:32:03.068Z,13.10
2022-10-01T19:37:15.512Z,14.40
2022-10-01T19:42:25.638Z,14.10
2022-10-01T19:47:44.215Z,14.60
2022-10-01T19:52:51.529Z,13.80
2022-10-01T19:57:57.176Z,13.40
2022-10-01T20:03:11.371Z,12.90
2022-10-01T20:08:29.028Z,13.10
2022-10-01T20:13:34.438Z,13.00
2022-10-01T20:18:42.790Z,13.70
2022-10-01T20:23:49.551Z,12.80
2022-10-01T20:34:22.011Z,14.20
2022-10-01T20:39:35.915Z,14.00
2022-10-01T20:44:39.428Z,14.40
2022-10-01T20:49:46.597Z,12.70
2022-10-01T20:54:59.318Z,17.10
2022-10-01T21:00:07.983Z,14.90
2022-10-01T21:05:28.003Z,13.50
2022-10-01T21:10:46.712Z,12.50
2022-10-01T21:16:01.642Z,12.30
2022-10-01T21:21:15.993Z,12.80
2022-10-01T21:26:49.384Z,11.60
2022-10-01T21:32:12.831Z,7.30
2022-10-01T21:37:27.630Z,5.80
2022-10-01T21:42:47.929Z,5.30
2022-10-01T21:47:50.616Z,5.40
2022-10-01T21:53:20.428Z,5.00
2022-10-01T21:58:52.221Z,5.70
2022-10-01T22:04:10.606Z,5.40
2022-10-01T22:09:26.825Z,5.50
2022-10-01T22:14:30.241Z,4.90
2022-10-01T22:19:37.685Z,5.40
2022-10-01T22:24:49.858Z,4.80
2022-10-01T22:30:05.525Z,5.00
2022-10-01T22:35:17.304Z,5.20
2022-10-01T22:40:27.198Z,5.00
2022-10-01T22:46:03.520Z,4.10
2022-10-01T22:51:36.961Z,4.70
2022-10-01T22:57:03.331Z,4.90
2022-10-01T23:02:17.445Z,4.90
2022-10-01T23:07:55.379Z,5.00
2022-10-01T23:13:24.715Z,5.10
2022-10-01T23:18:42.658Z,5.00
2022-10-01T23:24:09.136Z,5.20
2022-10-01T23:29:47.240Z,5.90
2022-10-01T23:35:22.467Z,6.20
2022-10-01T23:40:33.178Z,7.00
2022-10-01T23:46:11.417Z,6.60
2022-10-01T23:51:37.599Z,6.80
2022-10-01T23:57:00.159Z,7.80
